Juergen K — PBKV — position and weather

sailwx.info

Track history (hours):
 
Tides and Currents Weather Stations Pressure Air Temp Water Temp Dewpoint Dewpoint Depression Visibility Wind Speed Wind Dir Waves Ship Positions

Juergen K

Last reported at 2016-Dec-08 02:31 UTC. Time now 2016-Dec-08 04:00 UTC.
Position N 51°41' E 004°36'.

Length 89 m; draft 5.4 m.

Type: Cargo ship. MMSI: 244329000.

Date/timePositionNaut miles runAvg speedWind from/ knotsBaromVisibWave heightAir tempDewpointWater temp
2016-Dec-08 02:31N 51°41' E 004°36'0 0.0
2016-Dec-06 02:31N 51°41' E 004°36'0 0.0
2016-Dec-05 23:06N 51°41' E 004°36'1 2.1
2016-Dec-05 22:33N 51°42' E 004°37'8 8.0
2016-Dec-05 21:33N 51°50' E 004°32'9 8.8
2016-Dec-05 20:34N 51°53' E 004°19'10 9.6
2016-Dec-05 19:33N 51°59' E 004°06'1010.4
2016-Dec-05 18:33N 51°60' E 003°49'1111.1
2016-Dec-05 17:33N 51°57' E 003°32'1211.6
2016-Dec-05 16:30N 51°53' E 003°13'1111.4
2016-Dec-05 15:29N 51°49' E 002°55'1011.0
2016-Dec-05 14:33N 51°46' E 002°40'1010.2
2016-Dec-05 13:33N 51°38' E 002°28'10 9.6
2016-Dec-05 12:33N 51°31' E 002°18'9 9.0
2016-Dec-05 11:33N 51°23' E 002°11'9 8.8
2016-Dec-05 10:33N 51°16' E 002°05'8 8.1
2016-Dec-05 09:33N 51°10' E 001°56'8 8.4
2016-Dec-05 08:33N 51°05' E 001°45'13 9.5
2016-Dec-05 07:11N 50°55' E 001°31'75 9.9
2016-Dec-04 23:33N 50°17' W 000°11'3611.2
2016-Dec-04 20:23N 50°07' W 001°05'7 9.0
2016-Dec-04 19:33N 50°05' W 001°16'8 7.7
2016-Dec-04 18:33N 50°03' W 001°27'6 6.2
2016-Dec-04 17:33N 50°01' W 001°37'5 5.3
2016-Dec-04 16:33N 49°60' W 001°44'5 4.9
2016-Dec-04 15:33N 49°58' W 001°52'5 5.4
2016-Dec-04 14:33N 49°57' W 001°60'7 6.5
2016-Dec-04 13:33N 49°55' W 002°10'11 8.0
2016-Dec-04 12:12N 49°52' W 002°26'  
2016-Nov-30 06:33N 43°45' W 005°52'1110.6
2016-Nov-30 05:33N 43°44' W 005°37'1110.6
2016-Nov-30 04:31N 43°43' W 005°22'1110.7
2016-Nov-30 03:28N 43°42' W 005°07'  
Track history (hours):
 
Tides and Currents Weather Stations Pressure Air Temp Water Temp Dewpoint Dewpoint Depression Visibility Wind Speed Wind Dir Waves Ship Positions

Juergen K

Last reported at 2016-Dec-08 02:31 UTC. Time now 2016-Dec-08 04:00 UTC.
Position N 51°41' E 004°36'.

Length 89 m; draft 5.4 m.

Type: Cargo ship. MMSI: 244329000.

Date/timePositionNaut miles runAvg speedWind from/ knotsBaromVisibWave heightAir tempDewpointWater temp
2016-Dec-08 02:31N 51°41' E 004°36'0 0.0
2016-Dec-06 02:31N 51°41' E 004°36'0 0.0
2016-Dec-05 23:06N 51°41' E 004°36'1 2.1
2016-Dec-05 22:33N 51°42' E 004°37'8 8.0
2016-Dec-05 21:33N 51°50' E 004°32'9 8.8
2016-Dec-05 20:34N 51°53' E 004°19'10 9.6
2016-Dec-05 19:33N 51°59' E 004°06'1010.4
2016-Dec-05 18:33N 51°60' E 003°49'1111.1
2016-Dec-05 17:33N 51°57' E 003°32'1211.6
2016-Dec-05 16:30N 51°53' E 003°13'1111.4
2016-Dec-05 15:29N 51°49' E 002°55'1011.0
2016-Dec-05 14:33N 51°46' E 002°40'1010.2
2016-Dec-05 13:33N 51°38' E 002°28'10 9.6
2016-Dec-05 12:33N 51°31' E 002°18'9 9.0
2016-Dec-05 11:33N 51°23' E 002°11'9 8.8
2016-Dec-05 10:33N 51°16' E 002°05'8 8.1
2016-Dec-05 09:33N 51°10' E 001°56'8 8.4
2016-Dec-05 08:33N 51°05' E 001°45'13 9.5
2016-Dec-05 07:11N 50°55' E 001°31'75 9.9
2016-Dec-04 23:33N 50°17' W 000°11'3611.2
2016-Dec-04 20:23N 50°07' W 001°05'7 9.0
2016-Dec-04 19:33N 50°05' W 001°16'8 7.7
2016-Dec-04 18:33N 50°03' W 001°27'6 6.2
2016-Dec-04 17:33N 50°01' W 001°37'5 5.3
2016-Dec-04 16:33N 49°60' W 001°44'5 4.9
2016-Dec-04 15:33N 49°58' W 001°52'5 5.4
2016-Dec-04 14:33N 49°57' W 001°60'7 6.5
2016-Dec-04 13:33N 49°55' W 002°10'11 8.0
2016-Dec-04 12:12N 49°52' W 002°26'  
2016-Nov-30 06:33N 43°45' W 005°52'1110.6
2016-Nov-30 05:33N 43°44' W 005°37'1110.6
2016-Nov-30 04:31N 43°43' W 005°22'1110.7
2016-Nov-30 03:28N 43°42' W 005°07'  

Dump ship's entire track history